createdAt,value
2018-04-12T00:00:20.014Z,99239.41
2018-04-12T00:02:47.600Z,99236.69
2018-04-12T00:05:15.229Z,99241.35
2018-04-12T00:07:42.820Z,99241.53
2018-04-12T00:10:10.453Z,99241.00
2018-04-12T00:12:38.123Z,99239.05
2018-04-12T00:15:05.749Z,99242.02
2018-04-12T00:17:33.378Z,99240.50
2018-04-12T00:20:01.047Z,99242.42
2018-04-12T00:22:28.706Z,99240.91
2018-04-12T00:24:56.333Z,99239.45
2018-04-12T00:27:24.007Z,99244.66
2018-04-12T00:29:51.663Z,99242.02
2018-04-12T00:32:19.344Z,99245.83
2018-04-12T00:34:47.021Z,99245.06
2018-04-12T00:37:14.673Z,99248.98
2018-04-12T00:39:42.288Z,99242.71
2018-04-12T00:42:09.954Z,99247.00
2018-04-12T00:44:37.569Z,99246.67
2018-04-12T00:47:05.168Z,99251.77
2018-04-12T00:49:32.825Z,99254.93
2018-04-12T00:52:00.426Z,99248.11
2018-04-12T00:54:28.106Z,99255.08
2018-04-12T00:56:55.790Z,99248.83
2018-04-12T00:59:23.395Z,99250.77
2018-04-12T01:01:51.022Z,99249.91
2018-04-12T01:04:18.692Z,99253.55
2018-04-12T01:06:46.355Z,99248.27
2018-04-12T01:09:13.998Z,99253.06
2018-04-12T01:11:41.654Z,99257.42
2018-04-12T01:14:09.405Z,99261.94
2018-04-12T01:16:37.002Z,99258.17
2018-04-12T01:19:04.681Z,99253.42
2018-04-12T01:21:32.261Z,99260.67
2018-04-12T01:23:59.862Z,99263.02
2018-04-12T01:26:27.487Z,99262.84
2018-04-12T01:28:55.075Z,99261.41
2018-04-12T01:31:22.665Z,99263.16
2018-04-12T01:33:50.297Z,99261.30
2018-04-12T01:36:17.889Z,99262.11
2018-04-12T01:38:45.489Z,99267.00
2018-04-12T01:41:13.125Z,99268.58
2018-04-12T01:43:40.715Z,99272.06
2018-04-12T01:46:08.319Z,99269.09
2018-04-12T01:48:35.965Z,99272.05
2018-04-12T01:51:03.562Z,99266.53
2018-04-12T01:53:31.177Z,99270.61
2018-04-12T01:55:58.810Z,99264.61
2018-04-12T01:58:26.444Z,99274.03
2018-04-12T02:00:54.041Z,99275.44
2018-04-12T02:03:21.668Z,99276.98
2018-04-12T02:05:49.280Z,99280.67
2018-04-12T02:08:16.872Z,99278.81
2018-04-12T02:10:44.524Z,99277.70
2018-04-12T02:13:12.169Z,99284.53
2018-04-12T02:15:39.761Z,99285.53
2018-04-12T02:18:07.414Z,99285.47
2018-04-12T02:20:35.015Z,99291.63
2018-04-12T02:23:02.614Z,99282.98
2018-04-12T02:25:30.253Z,99291.00
2018-04-12T02:27:57.833Z,99290.84
2018-04-12T02:30:25.462Z,99286.98
2018-04-12T02:32:53.094Z,99285.86
2018-04-12T02:35:20.693Z,99285.17
2018-04-12T02:37:48.329Z,99288.09
2018-04-12T02:40:15.949Z,99290.96
2018-04-12T02:42:43.542Z,99287.98
2018-04-12T02:45:11.141Z,99285.50
2018-04-12T02:47:38.744Z,99295.06
2018-04-12T02:50:06.345Z,99299.75
2018-04-12T02:52:33.947Z,99300.42
2018-04-12T02:55:01.584Z,99302.56
2018-04-12T02:57:29.191Z,99309.36
2018-04-12T02:59:56.778Z,99309.30
2018-04-12T03:02:24.412Z,99314.44
2018-04-12T03:04:52.023Z,99315.04
2018-04-12T03:07:19.623Z,99318.94
2018-04-12T03:09:47.272Z,99324.02
2018-04-12T03:12:14.864Z,99321.12
2018-04-12T03:14:42.456Z,99325.51
2018-04-12T03:17:10.080Z,99327.70
2018-04-12T03:19:37.665Z,99331.06
2018-04-12T03:22:05.269Z,99330.69
2018-04-12T03:24:32.984Z,99333.70
2018-04-12T03:27:00.540Z,99332.73
2018-04-12T03:29:28.146Z,99335.52
2018-04-12T03:31:55.776Z,99340.33
2018-04-12T03:34:23.381Z,99341.84
2018-04-12T03:36:50.978Z,99341.83
2018-04-12T03:39:18.603Z,99343.48
2018-04-12T03:41:46.201Z,99344.22
2018-04-12T03:44:13.806Z,99345.72
2018-04-12T03:46:41.430Z,99347.31
2018-04-12T03:49:09.058Z,99351.70
2018-04-12T03:51:36.700Z,99354.41
2018-04-12T03:54:04.377Z,99352.33
2018-04-12T03:56:31.976Z,99353.55
2018-04-12T03:58:59.580Z,99356.06
2018-04-12T04:01:27.213Z,99361.02
2018-04-12T04:03:54.804Z,99355.97
2018-04-12T04:06:22.398Z,99362.72
2018-04-12T04:08:50.032Z,99352.11
2018-04-12T04:11:17.642Z,99356.16
2018-04-12T04:13:45.245Z,99353.80
2018-04-12T04:16:24.661Z,99357.30
2018-04-12T04:19:03.887Z,99359.58
2018-04-12T04:21:32.620Z,99359.55
2018-04-12T04:24:00.212Z,99359.80
2018-04-12T04:26:27.818Z,99370.81
2018-04-12T04:28:55.575Z,99371.55
2018-04-12T04:31:23.936Z,99371.86
2018-04-12T04:33:51.528Z,99376.13
2018-04-12T04:36:19.153Z,99377.02
2018-04-12T04:38:46.745Z,99377.50
2018-04-12T04:41:14.334Z,99384.41
2018-04-12T04:43:42.046Z,99382.45
2018-04-12T04:46:09.662Z,99388.46
2018-04-12T04:48:37.284Z,99387.00
2018-04-12T04:51:04.925Z,99390.36
2018-04-12T04:53:32.517Z,99393.58
2018-04-12T04:56:00.114Z,99391.41
2018-04-12T04:58:27.751Z,99391.37
2018-04-12T05:00:55.386Z,99396.19
2018-04-12T05:03:23.027Z,99391.41
2018-04-12T05:05:50.726Z,99397.17
2018-04-12T05:08:18.352Z,99398.69
2018-04-12T05:10:45.973Z,99394.64
2018-04-12T05:13:13.593Z,99390.70
2018-04-12T05:15:41.198Z,99389.00
2018-04-12T05:18:25.560Z,99381.00
2018-04-12T05:20:53.152Z,99387.35
2018-04-12T05:23:20.801Z,99393.00
2018-04-12T05:25:48.491Z,99401.19
2018-04-12T05:28:16.071Z,99392.27
2018-04-12T05:30:43.681Z,99394.33
2018-04-12T05:33:11.313Z,99398.52
2018-04-12T05:35:38.911Z,99399.27
2018-04-12T05:38:06.510Z,99390.52
2018-04-12T05:40:34.148Z,99395.44
2018-04-12T05:43:01.762Z,99387.08
2018-04-12T05:45:29.362Z,99396.81
2018-04-12T05:47:57.001Z,99394.20
2018-04-12T05:50:24.603Z,99392.09
2018-04-12T05:52:52.226Z,99394.36
2018-04-12T05:55:19.859Z,99394.22
2018-04-12T05:57:47.460Z,99395.33
2018-04-12T06:00:15.060Z,99394.77
2018-04-12T06:02:42.689Z,99391.99
2018-04-12T06:05:10.293Z,99389.38
2018-04-12T06:07:37.905Z,99386.51
2018-04-12T06:10:05.545Z,99388.72
2018-04-12T06:12:33.140Z,99390.73
2018-04-12T06:15:00.725Z,99388.39
2018-04-12T06:17:28.379Z,99387.83
2018-04-12T06:19:55.978Z,99390.44
2018-04-12T06:22:23.585Z,99393.41
2018-04-12T06:24:51.220Z,99391.77
2018-04-12T06:27:18.817Z,99383.93
2018-04-12T06:29:46.421Z,99382.85
2018-04-12T06:32:14.058Z,99381.47
2018-04-12T06:34:41.657Z,99382.70
2018-04-12T06:37:09.246Z,99379.19
2018-04-12T06:39:36.873Z,99378.46
2018-04-12T06:42:04.485Z,99374.48
2018-04-12T06:44:32.099Z,99374.97
2018-04-12T06:46:59.757Z,99373.19
2018-04-12T06:49:27.349Z,99373.25
2018-04-12T06:51:54.946Z,99367.41
2018-04-12T06:54:22.589Z,99362.94
2018-04-12T06:56:50.183Z,99363.80
2018-04-12T06:59:17.794Z,99367.72
2018-04-12T07:01:45.433Z,99367.17
2018-04-12T07:04:13.030Z,99361.19
2018-04-12T07:06:40.624Z,99370.13
2018-04-12T07:09:08.245Z,99368.73
2018-04-12T07:11:35.874Z,99369.14
2018-04-12T07:14:03.473Z,99366.36
2018-04-12T07:16:31.102Z,99365.43
2018-04-12T07:18:58.700Z,99366.38
2018-04-12T07:21:26.357Z,99362.56
2018-04-12T07:23:53.990Z,99367.02
2018-04-12T07:26:21.591Z,99360.89
2018-04-12T07:28:49.191Z,99364.38
2018-04-12T07:31:16.826Z,99366.06
2018-04-12T07:33:44.428Z,99361.52
2018-04-12T07:36:12.025Z,99363.00
2018-04-12T07:38:39.684Z,99364.50
2018-04-12T07:41:07.336Z,99362.61
2018-04-12T07:43:34.968Z,99366.13
2018-04-12T07:46:02.597Z,99370.14
2018-04-12T07:48:30.189Z,99373.12
2018-04-12T07:50:57.781Z,99368.98
2018-04-12T07:53:25.436Z,99361.09
2018-04-12T07:55:53.055Z,99365.91
2018-04-12T07:58:20.644Z,99364.77
2018-04-12T08:00:48.274Z,99364.63
2018-04-12T08:03:15.860Z,99363.13
2018-04-12T08:05:43.440Z,99364.59
2018-04-12T08:08:11.067Z,99357.28
2018-04-12T08:10:38.659Z,99355.69
2018-04-12T08:13:06.253Z,99363.36
2018-04-12T08:15:33.910Z,99357.37
2018-04-12T08:18:01.529Z,99363.44
2018-04-12T08:20:29.223Z,99360.23
2018-04-12T08:22:56.867Z,99360.37
2018-04-12T08:25:24.467Z,99358.00
2018-04-12T08:27:52.060Z,99356.39
2018-04-12T08:30:19.688Z,99345.25
2018-04-12T08:32:47.288Z,99350.19
2018-04-12T08:35:14.881Z,99347.78
2018-04-12T08:37:42.509Z,99349.66
2018-04-12T08:40:10.097Z,99354.64
2018-04-12T08:42:37.711Z,99354.40
2018-04-12T08:45:05.356Z,99356.86
2018-04-12T08:47:32.952Z,99359.52
2018-04-12T08:50:00.636Z,99362.00
2018-04-12T08:52:28.265Z,99360.43
2018-04-12T08:54:55.862Z,99354.37
2018-04-12T08:57:23.462Z,99359.98
2018-04-12T08:59:51.089Z,99362.17
2018-04-12T09:02:18.678Z,99357.17
2018-04-12T09:04:46.303Z,99362.91
2018-04-12T09:07:13.940Z,99358.47
2018-04-12T09:09:41.521Z,99360.64
2018-04-12T09:12:09.104Z,99362.52
2018-04-12T09:14:36.732Z,99359.97
2018-04-12T09:17:04.342Z,99357.81
2018-04-12T09:19:31.931Z,99350.28
2018-04-12T09:21:59.601Z,99351.77
2018-04-12T09:24:27.193Z,99347.52
2018-04-12T09:26:54.785Z,99337.44
2018-04-12T09:29:22.483Z,99339.58
2018-04-12T09:31:50.072Z,99337.68
2018-04-12T09:34:17.668Z,99336.88
2018-04-12T09:36:45.354Z,99334.73
2018-04-12T09:39:12.945Z,99333.61
2018-04-12T09:41:40.549Z,99329.61
2018-04-12T09:44:08.161Z,99337.20
2018-04-12T09:46:35.760Z,99340.36
2018-04-12T09:49:03.413Z,99339.30
2018-04-12T09:51:31.058Z,99344.33
2018-04-12T09:53:58.645Z,99339.38
2018-04-12T09:56:26.237Z,99336.58
2018-04-12T09:58:53.952Z,99351.48
2018-04-12T10:01:21.592Z,99347.75
2018-04-12T10:03:49.246Z,99343.85
2018-04-12T10:06:22.846Z,99344.45
2018-04-12T10:08:55.903Z,99343.14
2018-04-12T10:11:23.495Z,99342.22
2018-04-12T10:13:51.118Z,99341.34
2018-04-12T10:16:18.716Z,99346.55
2018-04-12T10:18:46.340Z,99347.34
2018-04-12T10:21:13.910Z,99342.98
2018-04-12T10:23:41.473Z,99343.34
2018-04-12T10:26:09.117Z,99336.83
2018-04-12T10:28:36.689Z,99332.20
2018-04-12T10:31:05.166Z,99339.14
2018-04-12T10:33:32.863Z,99333.91
2018-04-12T10:36:00.449Z,99336.88
2018-04-12T10:38:28.699Z,99328.61
2018-04-12T10:40:56.308Z,99334.59
2018-04-12T10:43:23.972Z,99335.40
2018-04-12T10:45:51.593Z,99336.17
2018-04-12T10:48:19.227Z,99333.57
2018-04-12T10:50:46.815Z,99342.06
2018-04-12T10:53:14.396Z,99334.77
2018-04-12T10:55:42.043Z,99338.66
2018-04-12T10:58:09.650Z,99324.24
2018-04-12T11:00:37.251Z,99332.31
2018-04-12T11:03:04.861Z,99321.10
2018-04-12T11:05:32.448Z,99326.42
2018-04-12T11:08:00.030Z,99327.56
2018-04-12T11:10:27.654Z,99325.52
2018-04-12T11:12:55.365Z,99325.22
2018-04-12T11:15:22.952Z,99331.23
2018-04-12T11:17:50.580Z,99328.17
2018-04-12T11:20:18.305Z,99327.12
2018-04-12T11:22:45.887Z,99325.28
2018-04-12T11:25:13.569Z,99319.95
2018-04-12T11:27:41.168Z,99323.09
2018-04-12T11:30:08.757Z,99329.22
2018-04-12T11:32:36.400Z,99331.95
2018-04-12T11:35:04.015Z,99317.48
2018-04-12T11:37:31.610Z,99319.05
2018-04-12T11:39:59.300Z,99317.05
2018-04-12T11:42:26.878Z,99320.97
2018-04-12T11:44:54.472Z,99319.23
2018-04-12T11:47:22.080Z,99315.16
2018-04-12T11:49:49.868Z,99310.53
2018-04-12T11:52:17.429Z,99303.56
2018-04-12T11:54:45.065Z,99307.82
2018-04-12T11:57:12.644Z,99306.98
2018-04-12T11:59:40.264Z,99309.84
2018-04-12T12:02:07.871Z,99290.13
2018-04-12T12:04:35.457Z,99293.34
2018-04-12T12:07:03.194Z,99295.70
2018-04-12T12:09:30.810Z,99291.78
2018-04-12T12:11:58.534Z,99284.75
2018-04-12T12:14:26.121Z,99291.86
2018-04-12T12:16:53.745Z,99292.75
2018-04-12T12:19:21.531Z,99284.16
2018-04-12T12:21:49.090Z,99278.25
2018-04-12T12:24:16.690Z,99280.20
2018-04-12T12:26:44.278Z,99284.16
2018-04-12T12:29:11.844Z,99276.69
2018-04-12T12:31:39.446Z,99272.98
2018-04-12T12:34:07.016Z,99269.45
2018-04-12T12:36:34.601Z,99279.31
2018-04-12T12:39:02.215Z,99275.44
2018-04-12T12:41:29.799Z,99269.41
2018-04-12T12:43:57.375Z,99269.33
2018-04-12T12:46:24.989Z,99272.13
2018-04-12T12:48:52.583Z,99265.05
2018-04-12T12:51:20.155Z,99263.00
2018-04-12T12:53:47.767Z,99266.63
2018-04-12T12:56:15.340Z,99267.38
2018-04-12T12:58:42.914Z,99262.34
2018-04-12T13:01:10.530Z,99257.94
2018-04-12T13:03:38.107Z,99256.56
2018-04-12T13:06:05.697Z,99257.03
2018-04-12T13:08:33.310Z,99257.92
2018-04-12T13:11:00.878Z,99251.98
2018-04-12T13:13:28.502Z,99255.56
2018-04-12T13:15:56.085Z,99251.63
2018-04-12T13:18:23.669Z,99245.17
2018-04-12T13:20:51.256Z,99246.38
2018-04-12T13:23:18.907Z,99246.87
2018-04-12T13:25:46.494Z,99248.92
2018-04-12T13:28:14.128Z,99251.17
2018-04-12T13:30:41.758Z,99244.87
2018-04-12T13:33:09.399Z,99241.61
2018-04-12T13:35:37.012Z,99246.27
2018-04-12T13:38:04.638Z,99234.18
2018-04-12T13:40:32.325Z,99235.84
2018-04-12T13:42:59.927Z,99211.24
2018-04-12T13:45:27.544Z,99238.98
2018-04-12T13:47:55.143Z,99233.02
2018-04-12T13:50:22.720Z,99235.16
2018-04-12T13:52:50.340Z,99235.97
2018-04-12T13:55:17.943Z,99238.15
2018-04-12T13:57:45.558Z,99238.97
2018-04-12T14:00:13.181Z,99239.36
2018-04-12T14:02:40.770Z,99240.38
2018-04-12T14:05:08.345Z,99235.05
2018-04-12T14:07:36.034Z,99236.72
2018-04-12T14:10:03.619Z,99238.85
2018-04-12T14:12:31.184Z,99235.17
2018-04-12T14:14:58.805Z,99235.59
2018-04-12T14:17:26.403Z,99231.84
2018-04-12T14:19:54.102Z,99233.05
2018-04-12T14:22:21.750Z,99234.25
2018-04-12T14:24:49.324Z,99237.24
2018-04-12T14:27:16.905Z,99233.97
2018-04-12T14:29:44.573Z,99237.80
2018-04-12T14:32:12.163Z,99235.70
2018-04-12T14:34:39.742Z,99238.11
2018-04-12T14:37:07.369Z,99237.26
2018-04-12T14:39:34.930Z,99232.95
2018-04-12T14:42:02.523Z,99238.91
2018-04-12T14:44:30.137Z,99224.69
2018-04-12T14:46:57.736Z,99228.52
2018-04-12T14:49:25.325Z,99227.39
2018-04-12T14:51:52.960Z,99226.46
2018-04-12T14:54:20.544Z,99223.03
2018-04-12T14:56:48.117Z,99222.86
2018-04-12T14:59:15.718Z,99219.75
2018-04-12T15:01:43.296Z,99220.55
2018-04-12T15:04:10.877Z,99216.37
2018-04-12T15:06:38.584Z,99221.26
2018-04-12T15:09:06.220Z,99223.09
2018-04-12T15:11:33.810Z,99223.48
2018-04-12T15:14:01.437Z,99220.83
2018-04-12T15:16:29.021Z,99218.78
2018-04-12T15:18:56.601Z,99218.47
2018-04-12T15:21:24.222Z,99216.87
2018-04-12T15:23:51.852Z,99213.95
2018-04-12T15:26:19.431Z,99218.48
2018-04-12T15:28:47.073Z,99216.95
2018-04-12T15:31:14.677Z,99214.14
2018-04-12T15:33:42.376Z,99221.75
2018-04-12T15:36:09.997Z,99225.88
2018-04-12T15:38:37.686Z,99220.33
2018-04-12T15:41:05.282Z,99218.38
2018-04-12T15:43:32.888Z,99216.87
2018-04-12T15:46:00.472Z,99225.30
2018-04-12T15:48:28.059Z,99218.22
2018-04-12T15:50:55.682Z,99216.39
2018-04-12T15:53:23.271Z,99220.09
2018-04-12T15:55:50.876Z,99216.30
2018-04-12T15:58:18.497Z,99219.71
2018-04-12T16:00:46.102Z,99220.56
2018-04-12T16:03:13.689Z,99224.40
2018-04-12T16:05:42.054Z,99221.01
2018-04-12T16:08:09.630Z,99224.09
2018-04-12T16:10:37.378Z,99226.55
2018-04-12T16:13:04.972Z,99220.47
2018-04-12T16:15:32.546Z,99228.31
2018-04-12T16:18:00.137Z,99229.19
2018-04-12T16:20:27.748Z,99226.16
2018-04-12T16:22:55.346Z,99239.61
2018-04-12T16:25:22.927Z,99237.55
2018-04-12T16:27:50.558Z,99237.36
2018-04-12T16:30:18.152Z,99230.13
2018-04-12T16:32:45.750Z,99231.39
2018-04-12T16:35:13.360Z,99232.94
2018-04-12T16:37:40.930Z,99230.98
2018-04-12T16:40:08.517Z,99236.44
2018-04-12T16:42:36.134Z,99243.62
2018-04-12T16:45:03.759Z,99239.70
2018-04-12T16:47:31.358Z,99244.93
2018-04-12T16:49:58.999Z,99247.55
2018-04-12T16:52:26.902Z,99241.33
2018-04-12T16:54:54.521Z,99248.67
2018-04-12T16:57:22.133Z,99250.91
2018-04-12T16:59:49.753Z,99254.45
2018-04-12T17:02:17.372Z,99253.73
2018-04-12T17:04:44.984Z,99253.88
2018-04-12T17:07:12.677Z,99256.79
2018-04-12T17:09:40.317Z,99265.97
2018-04-12T17:12:07.965Z,99268.32
2018-04-12T17:14:35.602Z,99267.64
2018-04-12T17:17:03.239Z,99269.99
2018-04-12T17:19:30.903Z,99271.48
2018-04-12T17:21:58.570Z,99270.07
2018-04-12T17:24:26.231Z,99273.63
2018-04-12T17:26:54.148Z,99283.45
2018-04-12T17:29:21.843Z,99282.28
2018-04-12T17:31:49.461Z,99285.80
2018-04-12T17:34:17.094Z,99288.99
2018-04-12T17:36:44.695Z,99289.65
2018-04-12T17:39:12.290Z,99292.72
2018-04-12T17:41:39.926Z,99293.52
2018-04-12T17:44:07.549Z,99299.37
2018-04-12T17:46:35.148Z,99294.78
2018-04-12T17:49:02.791Z,99298.61
2018-04-12T17:51:30.396Z,99303.20
2018-04-12T17:53:57.991Z,99309.59
2018-04-12T17:56:25.625Z,99314.99
2018-04-12T17:58:53.272Z,99313.23
2018-04-12T18:01:20.869Z,99320.58
2018-04-12T18:03:48.526Z,99312.26
2018-04-12T18:06:16.125Z,99311.55
2018-04-12T18:08:43.721Z,99315.45
2018-04-12T18:11:11.356Z,99317.50
2018-04-12T18:13:38.943Z,99317.11
2018-04-12T18:16:06.536Z,99323.48
2018-04-12T18:18:34.149Z,99325.11
2018-04-12T18:21:01.736Z,99337.42
2018-04-12T18:23:29.312Z,99342.06
2018-04-12T18:25:56.943Z,99340.80
2018-04-12T18:28:24.529Z,99351.53
2018-04-12T18:30:52.117Z,99357.22
2018-04-12T18:33:19.734Z,99355.80
2018-04-12T18:35:47.330Z,99360.83
2018-04-12T18:38:14.932Z,99364.95
2018-04-12T18:40:42.639Z,99363.99
2018-04-12T18:43:10.274Z,99367.75
2018-04-12T18:45:37.848Z,99367.16
2018-04-12T18:48:05.460Z,99362.48
2018-04-12T18:50:33.036Z,99366.48
2018-04-12T18:53:00.615Z,99371.08
2018-04-12T18:55:28.280Z,99378.80
2018-04-12T18:57:56.044Z,99373.97
2018-04-12T19:00:23.623Z,99372.77
2018-04-12T19:02:51.230Z,99367.81
2018-04-12T19:05:18.802Z,99367.53
2018-04-12T19:07:46.404Z,99367.31
2018-04-12T19:10:14.019Z,99360.96
2018-04-12T19:12:41.615Z,99363.97
2018-04-12T19:15:09.195Z,99375.51
2018-04-12T19:17:36.836Z,99374.84
2018-04-12T19:20:04.414Z,99375.39
2018-04-12T19:22:32.028Z,99378.30
2018-04-12T19:24:59.650Z,99377.89
2018-04-12T19:27:27.296Z,99395.88
2018-04-12T19:29:54.871Z,99390.97
2018-04-12T19:32:22.471Z,99398.56
2018-04-12T19:34:50.066Z,99402.78
2018-04-12T19:37:17.694Z,99399.22
2018-04-12T19:39:45.296Z,99395.31
2018-04-12T19:42:18.808Z,99394.91
2018-04-12T19:44:46.478Z,99392.70
2018-04-12T19:47:14.064Z,99398.03
2018-04-12T19:49:41.656Z,99405.56
2018-04-12T19:52:09.325Z,99402.80
2018-04-12T19:54:36.900Z,99408.69
2018-04-12T19:57:04.477Z,99401.40
2018-04-12T19:59:32.102Z,99408.22
2018-04-12T20:01:59.686Z,99408.48
2018-04-12T20:04:27.328Z,99412.73
2018-04-12T20:06:54.936Z,99416.55
2018-04-12T20:09:22.553Z,99420.17
2018-04-12T20:11:50.177Z,99420.23
2018-04-12T20:14:17.802Z,99414.98
2018-04-12T20:16:45.390Z,99411.59
2018-04-12T20:19:12.968Z,99420.72
2018-04-12T20:21:40.576Z,99422.86
2018-04-12T20:24:08.156Z,99418.12
2018-04-12T20:26:35.733Z,99421.93
2018-04-12T20:29:03.347Z,99422.16
2018-04-12T20:31:30.933Z,99420.50
2018-04-12T20:33:58.525Z,99432.22
2018-04-12T20:36:26.219Z,99422.56
2018-04-12T20:38:53.806Z,99415.01
2018-04-12T20:41:21.450Z,99422.92
2018-04-12T20:43:49.089Z,99429.13
2018-04-12T20:46:16.681Z,99425.90
2018-04-12T20:48:44.399Z,99427.70
2018-04-12T20:51:12.102Z,99432.76
2018-04-12T20:53:39.698Z,99425.16
2018-04-12T20:56:07.305Z,99426.51
2018-04-12T20:58:34.922Z,99426.41
2018-04-12T21:01:02.577Z,99434.23
2018-04-12T21:03:30.184Z,99429.30
2018-04-12T21:05:57.817Z,99428.11
2018-04-12T21:08:25.428Z,99432.34
2018-04-12T21:10:53.090Z,99428.36
2018-04-12T21:13:20.716Z,99434.95
2018-04-12T21:15:48.311Z,99431.87
2018-04-12T21:18:15.906Z,99435.67
2018-04-12T21:20:43.543Z,99435.52
2018-04-12T21:23:11.124Z,99436.05
2018-04-12T21:25:38.719Z,99445.63
2018-04-12T21:28:06.341Z,99450.11
2018-04-12T21:30:33.928Z,99448.05
2018-04-12T21:33:01.513Z,99442.72
2018-04-12T21:35:29.170Z,99448.12
2018-04-12T21:37:56.762Z,99448.98
2018-04-12T21:40:24.362Z,99445.80
2018-04-12T21:42:52.035Z,99449.94
2018-04-12T21:45:19.620Z,99450.02
2018-04-12T21:47:47.198Z,99449.17
2018-04-12T21:50:14.819Z,99448.24
2018-04-12T21:52:42.394Z,99446.73
2018-04-12T21:55:09.983Z,99456.50
2018-04-12T21:57:37.609Z,99455.09
2018-04-12T22:00:05.256Z,99460.84
2018-04-12T22:02:32.844Z,99456.64
2018-04-12T22:05:00.470Z,99456.11
2018-04-12T22:07:28.086Z,99457.99
2018-04-12T22:09:55.674Z,99452.70
2018-04-12T22:12:23.328Z,99446.23
2018-04-12T22:14:50.905Z,99452.73
2018-04-12T22:17:18.531Z,99446.65
2018-04-12T22:19:46.188Z,99441.97
2018-04-12T22:22:13.941Z,99445.33
2018-04-12T22:24:41.525Z,99444.61
2018-04-12T22:27:09.177Z,99442.82
2018-04-12T22:29:36.940Z,99437.23
2018-04-12T22:32:04.601Z,99448.67
2018-04-12T22:34:32.233Z,99440.16
2018-04-12T22:36:59.863Z,99439.92
2018-04-12T22:39:27.505Z,99436.59
2018-04-12T22:41:55.134Z,99437.86
2018-04-12T22:44:22.736Z,99437.39
2018-04-12T22:46:50.321Z,99434.42
2018-04-12T22:49:17.942Z,99431.30
2018-04-12T22:51:45.905Z,99427.53
2018-04-12T22:54:13.499Z,99431.24
2018-04-12T22:56:41.408Z,99424.75
2018-04-12T22:59:09.276Z,99418.08
2018-04-12T23:01:36.897Z,99422.67
2018-04-12T23:04:04.536Z,99422.02
2018-04-12T23:06:32.234Z,99418.18
2018-04-12T23:08:59.797Z,99423.25
2018-04-12T23:11:27.419Z,99421.61
2018-04-12T23:13:55.017Z,99415.41
2018-04-12T23:16:22.720Z,99419.31
2018-04-12T23:18:50.351Z,99416.38
2018-04-12T23:21:18.055Z,99413.98
2018-04-12T23:23:45.719Z,99411.88
2018-04-12T23:26:13.380Z,99410.06
2018-04-12T23:28:40.972Z,99404.00
2018-04-12T23:31:08.693Z,99391.41
2018-04-12T23:33:36.367Z,99396.20
2018-04-12T23:36:04.029Z,99388.27
2018-04-12T23:38:31.772Z,99393.27
2018-04-12T23:40:59.384Z,99394.97
2018-04-12T23:43:26.981Z,99393.34
2018-04-12T23:45:54.573Z,99398.87
2018-04-12T23:48:22.545Z,99400.73
2018-04-12T23:50:50.138Z,99406.92
2018-04-12T23:53:17.870Z,99403.59
2018-04-12T23:55:45.524Z,99401.05
2018-04-12T23:58:13.157Z,99400.89
